sensor_id;sensor_type;location;lat;lon;timestamp;temperature;humidity
2435;DHT22;1228;51.022;6.764;2023-09-19T00:02:18;15.90;99.90
2435;DHT22;1228;51.022;6.764;2023-09-19T00:04:43;15.90;99.90
2435;DHT22;1228;51.022;6.764;2023-09-19T00:07:10;15.90;99.90
2435;DHT22;1228;51.022;6.764;2023-09-19T00:09:35;15.90;99.90
2435;DHT22;1228;51.022;6.764;2023-09-19T00:12:06;15.90;99.90
2435;DHT22;1228;51.022;6.764;2023-09-19T00:14:33;15.90;99.90
2435;DHT22;1228;51.022;6.764;2023-09-19T00:17:02;15.90;99.90
2435;DHT22;1228;51.022;6.764;2023-09-19T00:19:31;15.80;99.90
2435;DHT22;1228;51.022;6.764;2023-09-19T00:21:58;15.80;99.90
2435;DHT22;1228;51.022;6.764;2023-09-19T00:24:23;15.80;99.90
2435;DHT22;1228;51.022;6.764;2023-09-19T00:26:49;15.80;99.90
2435;DHT22;1228;51.022;6.764;2023-09-19T00:29:15;15.80;99.90
2435;DHT22;1228;51.022;6.764;2023-09-19T00:31:44;15.80;99.90
2435;DHT22;1228;51.022;6.764;2023-09-19T00:34:10;15.80;99.90
2435;DHT22;1228;51.022;6.764;2023-09-19T00:36:39;15.90;99.90
2435;DHT22;1228;51.022;6.764;2023-09-19T00:39:08;15.90;99.90
2435;DHT22;1228;51.022;6.764;2023-09-19T00:41:34;16.00;99.90
2435;DHT22;1228;51.022;6.764;2023-09-19T00:44:02;16.10;99.90
2435;DHT22;1228;51.022;6.764;2023-09-19T00:46:29;16.20;99.90
2435;DHT22;1228;51.022;6.764;2023-09-19T00:48:54;16.20;99.90
2435;DHT22;1228;51.022;6.764;2023-09-19T00:51:22;16.20;99.90
2435;DHT22;1228;51.022;6.764;2023-09-19T00:53:48;16.30;99.90
2435;DHT22;1228;51.022;6.764;2023-09-19T00:56:15;16.30;99.90
2435;DHT22;1228;51.022;6.764;2023-09-19T00:58:44;16.30;99.90
2435;DHT22;1228;51.022;6.764;2023-09-19T01:01:10;16.30;99.90
2435;DHT22;1228;51.022;6.764;2023-09-19T01:03:37;16.30;99.90
2435;DHT22;1228;51.022;6.764;2023-09-19T01:06:03;16.30;99.90
2435;DHT22;1228;51.022;6.764;2023-09-19T01:08:29;16.40;99.90
2435;DHT22;1228;51.022;6.764;2023-09-19T01:11:25;16.40;99.90
2435;DHT22;1228;51.022;6.764;2023-09-19T01:14:28;16.40;99.90
2435;DHT22;1228;51.022;6.764;2023-09-19T01:17:23;16.40;99.90
2435;DHT22;1228;51.022;6.764;2023-09-19T01:20:11;16.40;99.90
2435;DHT22;1228;51.022;6.764;2023-09-19T01:23:11;16.40;99.90
2435;DHT22;1228;51.022;6.764;2023-09-19T01:30:53;16.30;99.90
2435;DHT22;1228;51.022;6.764;2023-09-19T01:33:23;16.20;99.90
2435;DHT22;1228;51.022;6.764;2023-09-19T01:35:49;16.30;99.90
2435;DHT22;1228;51.022;6.764;2023-09-19T01:38:15;16.30;99.90
2435;DHT22;1228;51.022;6.764;2023-09-19T01:40:43;16.30;99.90
2435;DHT22;1228;51.022;6.764;2023-09-19T01:43:27;16.30;99.90
2435;DHT22;1228;51.022;6.764;2023-09-19T01:46:17;16.40;99.90
2435;DHT22;1228;51.022;6.764;2023-09-19T01:54:20;16.30;99.90
2435;DHT22;1228;51.022;6.764;2023-09-19T01:57:07;16.30;99.90
2435;DHT22;1228;51.022;6.764;2023-09-19T01:59:50;16.20;99.90
2435;DHT22;1228;51.022;6.764;2023-09-19T02:02:20;16.10;99.90
2435;DHT22;1228;51.022;6.764;2023-09-19T02:04:48;16.10;99.90
2435;DHT22;1228;51.022;6.764;2023-09-19T02:07:14;16.00;99.90
2435;DHT22;1228;51.022;6.764;2023-09-19T02:09:40;16.00;99.90
2435;DHT22;1228;51.022;6.764;2023-09-19T02:12:09;16.00;99.90
2435;DHT22;1228;51.022;6.764;2023-09-19T02:14:34;16.00;99.90
2435;DHT22;1228;51.022;6.764;2023-09-19T02:17:02;16.00;99.90
2435;DHT22;1228;51.022;6.764;2023-09-19T02:19:31;15.90;99.90
2435;DHT22;1228;51.022;6.764;2023-09-19T02:21:58;15.90;99.90
2435;DHT22;1228;51.022;6.764;2023-09-19T02:24:23;15.90;99.90
2435;DHT22;1228;51.022;6.764;2023-09-19T02:26:49;15.90;99.90
2435;DHT22;1228;51.022;6.764;2023-09-19T02:29:15;15.80;99.90
2435;DHT22;1228;51.022;6.764;2023-09-19T02:31:40;15.80;99.90
2435;DHT22;1228;51.022;6.764;2023-09-19T02:34:06;15.80;99.90
2435;DHT22;1228;51.022;6.764;2023-09-19T02:36:32;15.80;99.90
2435;DHT22;1228;51.022;6.764;2023-09-19T02:38:57;15.80;99.90
2435;DHT22;1228;51.022;6.764;2023-09-19T02:41:23;15.70;99.90
2435;DHT22;1228;51.022;6.764;2023-09-19T02:43:49;15.70;99.90
2435;DHT22;1228;51.022;6.764;2023-09-19T02:46:14;15.70;99.90
2435;DHT22;1228;51.022;6.764;2023-09-19T02:48:42;15.70;99.90
2435;DHT22;1228;51.022;6.764;2023-09-19T02:51:07;15.70;99.90
2435;DHT22;1228;51.022;6.764;2023-09-19T02:53:33;15.60;99.90
2435;DHT22;1228;51.022;6.764;2023-09-19T02:55:59;15.60;99.90
2435;DHT22;1228;51.022;6.764;2023-09-19T02:58:24;15.50;99.90
2435;DHT22;1228;51.022;6.764;2023-09-19T03:00:50;15.50;99.90
2435;DHT22;1228;51.022;6.764;2023-09-19T03:03:17;15.50;99.90
2435;DHT22;1228;51.022;6.764;2023-09-19T03:05:43;15.50;99.90
2435;DHT22;1228;51.022;6.764;2023-09-19T03:08:13;15.40;99.90
2435;DHT22;1228;51.022;6.764;2023-09-19T03:10:42;15.30;99.90
2435;DHT22;1228;51.022;6.764;2023-09-19T03:13:08;15.30;99.90
2435;DHT22;1228;51.022;6.764;2023-09-19T03:15:35;15.30;99.90
2435;DHT22;1228;51.022;6.764;2023-09-19T03:18:04;15.30;99.90
2435;DHT22;1228;51.022;6.764;2023-09-19T03:20:30;15.30;99.90
2435;DHT22;1228;51.022;6.764;2023-09-19T03:22:55;15.30;99.90
2435;DHT22;1228;51.022;6.764;2023-09-19T03:25:22;15.30;99.90
2435;DHT22;1228;51.022;6.764;2023-09-19T03:27:48;15.30;99.90
2435;DHT22;1228;51.022;6.764;2023-09-19T03:30:14;15.30;99.90
2435;DHT22;1228;51.022;6.764;2023-09-19T03:32:47;15.30;99.90
2435;DHT22;1228;51.022;6.764;2023-09-19T03:35:15;15.30;99.90
2435;DHT22;1228;51.022;6.764;2023-09-19T03:37:41;15.30;99.90
2435;DHT22;1228;51.022;6.764;2023-09-19T03:40:08;15.30;99.90
2435;DHT22;1228;51.022;6.764;2023-09-19T03:42:41;15.30;99.90
2435;DHT22;1228;51.022;6.764;2023-09-19T03:45:08;15.20;99.90
2435;DHT22;1228;51.022;6.764;2023-09-19T03:47:38;15.20;99.90
2435;DHT22;1228;51.022;6.764;2023-09-19T03:50:05;15.20;99.90
2435;DHT22;1228;51.022;6.764;2023-09-19T03:52:30;15.20;99.90
2435;DHT22;1228;51.022;6.764;2023-09-19T03:54:56;15.10;99.90
2435;DHT22;1228;51.022;6.764;2023-09-19T03:57:22;15.10;99.90
2435;DHT22;1228;51.022;6.764;2023-09-19T03:59:47;15.10;99.90
2435;DHT22;1228;51.022;6.764;2023-09-19T04:02:13;15.10;99.90
2435;DHT22;1228;51.022;6.764;2023-09-19T04:04:48;15.10;99.90
2435;DHT22;1228;51.022;6.764;2023-09-19T04:07:14;15.10;99.90
2435;DHT22;1228;51.022;6.764;2023-09-19T04:09:39;15.10;99.90
2435;DHT22;1228;51.022;6.764;2023-09-19T04:12:05;15.00;99.90
2435;DHT22;1228;51.022;6.764;2023-09-19T04:14:31;15.00;99.90
2435;DHT22;1228;51.022;6.764;2023-09-19T04:16:56;15.00;99.90
2435;DHT22;1228;51.022;6.764;2023-09-19T04:19:22;14.90;99.90
2435;DHT22;1228;51.022;6.764;2023-09-19T04:21:47;14.90;99.90
2435;DHT22;1228;51.022;6.764;2023-09-19T04:24:13;14.90;99.90
2435;DHT22;1228;51.022;6.764;2023-09-19T04:26:39;14.90;99.90
2435;DHT22;1228;51.022;6.764;2023-09-19T04:29:04;14.90;99.90
2435;DHT22;1228;51.022;6.764;2023-09-19T04:31:31;14.90;99.90
2435;DHT22;1228;51.022;6.764;2023-09-19T04:33:57;14.90;99.90
2435;DHT22;1228;51.022;6.764;2023-09-19T04:36:24;14.90;99.90
2435;DHT22;1228;51.022;6.764;2023-09-19T04:38:50;14.90;99.90
2435;DHT22;1228;51.022;6.764;2023-09-19T04:41:15;14.90;99.90
2435;DHT22;1228;51.022;6.764;2023-09-19T04:43:41;14.90;99.90
2435;DHT22;1228;51.022;6.764;2023-09-19T04:46:07;14.80;99.90
2435;DHT22;1228;51.022;6.764;2023-09-19T04:48:33;14.80;99.90
2435;DHT22;1228;51.022;6.764;2023-09-19T04:51:00;14.70;99.90
2435;DHT22;1228;51.022;6.764;2023-09-19T04:53:25;14.80;99.90
2435;DHT22;1228;51.022;6.764;2023-09-19T04:55:53;14.70;99.90
2435;DHT22;1228;51.022;6.764;2023-09-19T04:58:21;14.70;99.90
2435;DHT22;1228;51.022;6.764;2023-09-19T05:00:47;14.70;99.90
2435;DHT22;1228;51.022;6.764;2023-09-19T05:03:13;14.70;99.90
2435;DHT22;1228;51.022;6.764;2023-09-19T05:05:39;14.70;99.90
2435;DHT22;1228;51.022;6.764;2023-09-19T05:08:06;14.70;99.90
2435;DHT22;1228;51.022;6.764;2023-09-19T05:10:34;14.70;99.90
2435;DHT22;1228;51.022;6.764;2023-09-19T05:13:03;14.60;99.90
2435;DHT22;1228;51.022;6.764;2023-09-19T05:15:30;14.60;99.90
2435;DHT22;1228;51.022;6.764;2023-09-19T05:17:56;14.60;99.90
2435;DHT22;1228;51.022;6.764;2023-09-19T05:20:22;14.70;99.90
2435;DHT22;1228;51.022;6.764;2023-09-19T05:23:01;14.70;99.90
2435;DHT22;1228;51.022;6.764;2023-09-19T05:25:37;14.60;99.90
2435;DHT22;1228;51.022;6.764;2023-09-19T05:28:03;14.60;99.90
2435;DHT22;1228;51.022;6.764;2023-09-19T05:30:31;14.60;99.90
2435;DHT22;1228;51.022;6.764;2023-09-19T05:32:57;14.70;99.90
2435;DHT22;1228;51.022;6.764;2023-09-19T05:35:23;14.70;99.90
2435;DHT22;1228;51.022;6.764;2023-09-19T05:37:53;14.80;99.90
2435;DHT22;1228;51.022;6.764;2023-09-19T05:40:20;14.80;99.90
2435;DHT22;1228;51.022;6.764;2023-09-19T05:42:46;14.90;99.90
2435;DHT22;1228;51.022;6.764;2023-09-19T05:45:13;14.90;99.90
2435;DHT22;1228;51.022;6.764;2023-09-19T05:47:43;14.90;99.90
2435;DHT22;1228;51.022;6.764;2023-09-19T05:50:11;15.00;99.90
2435;DHT22;1228;51.022;6.764;2023-09-19T05:52:40;15.00;99.90
2435;DHT22;1228;51.022;6.764;2023-09-19T05:55:08;15.00;99.90
2435;DHT22;1228;51.022;6.764;2023-09-19T05:57:34;15.10;99.90
2435;DHT22;1228;51.022;6.764;2023-09-19T06:00:00;15.10;99.90
2435;DHT22;1228;51.022;6.764;2023-09-19T06:02:26;15.20;99.90
2435;DHT22;1228;51.022;6.764;2023-09-19T06:04:56;15.20;99.90
2435;DHT22;1228;51.022;6.764;2023-09-19T06:07:22;15.20;99.90
2435;DHT22;1228;51.022;6.764;2023-09-19T06:09:51;15.20;99.90
2435;DHT22;1228;51.022;6.764;2023-09-19T06:12:19;15.30;99.90
2435;DHT22;1228;51.022;6.764;2023-09-19T06:14:44;15.30;99.90
2435;DHT22;1228;51.022;6.764;2023-09-19T06:17:10;15.30;99.90
2435;DHT22;1228;51.022;6.764;2023-09-19T06:19:36;15.40;99.90
2435;DHT22;1228;51.022;6.764;2023-09-19T06:22:01;15.40;99.90
2435;DHT22;1228;51.022;6.764;2023-09-19T06:24:27;15.50;99.90
2435;DHT22;1228;51.022;6.764;2023-09-19T06:26:53;15.50;99.90
2435;DHT22;1228;51.022;6.764;2023-09-19T06:29:20;15.60;99.90
2435;DHT22;1228;51.022;6.764;2023-09-19T06:31:48;15.60;99.90
2435;DHT22;1228;51.022;6.764;2023-09-19T06:34:14;15.70;99.90
2435;DHT22;1228;51.022;6.764;2023-09-19T06:36:41;15.70;99.90
2435;DHT22;1228;51.022;6.764;2023-09-19T06:39:07;15.70;99.90
2435;DHT22;1228;51.022;6.764;2023-09-19T06:41:36;15.80;99.90
2435;DHT22;1228;51.022;6.764;2023-09-19T06:44:03;15.90;99.90
2435;DHT22;1228;51.022;6.764;2023-09-19T06:46:30;15.90;99.90
2435;DHT22;1228;51.022;6.764;2023-09-19T06:49:00;16.00;99.90
2435;DHT22;1228;51.022;6.764;2023-09-19T06:51:26;16.10;99.90
2435;DHT22;1228;51.022;6.764;2023-09-19T06:53:51;16.20;99.90
2435;DHT22;1228;51.022;6.764;2023-09-19T06:56:19;16.20;99.90
2435;DHT22;1228;51.022;6.764;2023-09-19T06:58:50;16.30;99.90
2435;DHT22;1228;51.022;6.764;2023-09-19T07:01:15;16.40;99.90
2435;DHT22;1228;51.022;6.764;2023-09-19T07:03:41;16.50;99.90
2435;DHT22;1228;51.022;6.764;2023-09-19T07:06:06;16.60;99.90
2435;DHT22;1228;51.022;6.764;2023-09-19T07:08:34;16.60;99.90
2435;DHT22;1228;51.022;6.764;2023-09-19T07:10:59;16.70;99.90
2435;DHT22;1228;51.022;6.764;2023-09-19T07:13:25;16.70;99.90
2435;DHT22;1228;51.022;6.764;2023-09-19T07:15:51;16.80;99.90
2435;DHT22;1228;51.022;6.764;2023-09-19T07:18:17;16.90;99.90
2435;DHT22;1228;51.022;6.764;2023-09-19T07:20:44;17.00;99.90
2435;DHT22;1228;51.022;6.764;2023-09-19T07:23:20;17.10;99.90
2435;DHT22;1228;51.022;6.764;2023-09-19T07:25:47;17.20;99.90
2435;DHT22;1228;51.022;6.764;2023-09-19T07:28:14;17.10;99.90
2435;DHT22;1228;51.022;6.764;2023-09-19T07:30:40;17.20;99.90
2435;DHT22;1228;51.022;6.764;2023-09-19T07:33:07;17.20;99.90
2435;DHT22;1228;51.022;6.764;2023-09-19T07:35:32;17.20;99.90
2435;DHT22;1228;51.022;6.764;2023-09-19T07:37:59;17.30;99.90
2435;DHT22;1228;51.022;6.764;2023-09-19T07:40:27;17.40;99.90
2435;DHT22;1228;51.022;6.764;2023-09-19T07:42:57;17.60;99.90
2435;DHT22;1228;51.022;6.764;2023-09-19T07:45:30;17.80;99.90
2435;DHT22;1228;51.022;6.764;2023-09-19T07:47:56;18.00;99.90
2435;DHT22;1228;51.022;6.764;2023-09-19T07:50:21;18.20;99.90
2435;DHT22;1228;51.022;6.764;2023-09-19T07:52:48;18.40;99.90
2435;DHT22;1228;51.022;6.764;2023-09-19T07:55:16;18.70;99.90
2435;DHT22;1228;51.022;6.764;2023-09-19T07:57:43;18.90;99.90
2435;DHT22;1228;51.022;6.764;2023-09-19T08:00:10;19.10;99.90
2435;DHT22;1228;51.022;6.764;2023-09-19T08:02:36;19.30;99.90
2435;DHT22;1228;51.022;6.764;2023-09-19T08:05:03;19.30;99.90
2435;DHT22;1228;51.022;6.764;2023-09-19T08:07:32;19.30;99.90
2435;DHT22;1228;51.022;6.764;2023-09-19T08:09:58;19.10;99.90
2435;DHT22;1228;51.022;6.764;2023-09-19T08:12:24;19.20;99.90
2435;DHT22;1228;51.022;6.764;2023-09-19T08:14:50;19.30;99.90
2435;DHT22;1228;51.022;6.764;2023-09-19T08:17:16;19.30;99.90
2435;DHT22;1228;51.022;6.764;2023-09-19T08:19:42;19.40;99.90
2435;DHT22;1228;51.022;6.764;2023-09-19T08:22:10;19.60;99.90
2435;DHT22;1228;51.022;6.764;2023-09-19T08:24:36;20.00;99.90
2435;DHT22;1228;51.022;6.764;2023-09-19T08:27:04;20.30;99.90
2435;DHT22;1228;51.022;6.764;2023-09-19T08:29:31;20.50;99.90
2435;DHT22;1228;51.022;6.764;2023-09-19T08:31:57;20.60;99.90
2435;DHT22;1228;51.022;6.764;2023-09-19T08:34:26;20.50;99.90
2435;DHT22;1228;51.022;6.764;2023-09-19T08:36:52;20.50;99.90
2435;DHT22;1228;51.022;6.764;2023-09-19T08:39:22;20.50;99.90
2435;DHT22;1228;51.022;6.764;2023-09-19T08:41:48;20.50;99.90
2435;DHT22;1228;51.022;6.764;2023-09-19T08:44:13;20.50;99.90
2435;DHT22;1228;51.022;6.764;2023-09-19T08:46:41;20.40;99.90
2435;DHT22;1228;51.022;6.764;2023-09-19T08:49:25;20.40;99.90
2435;DHT22;1228;51.022;6.764;2023-09-19T08:52:05;20.50;99.90
2435;DHT22;1228;51.022;6.764;2023-09-19T08:54:38;20.60;99.90
2435;DHT22;1228;51.022;6.764;2023-09-19T08:57:07;20.70;99.90
2435;DHT22;1228;51.022;6.764;2023-09-19T08:59:41;20.70;99.90
2435;DHT22;1228;51.022;6.764;2023-09-19T09:02:16;20.70;99.90
2435;DHT22;1228;51.022;6.764;2023-09-19T09:04:46;20.70;99.90
2435;DHT22;1228;51.022;6.764;2023-09-19T09:07:14;20.80;99.90
2435;DHT22;1228;51.022;6.764;2023-09-19T09:09:42;20.90;99.90
2435;DHT22;1228;51.022;6.764;2023-09-19T09:12:14;21.00;99.90
2435;DHT22;1228;51.022;6.764;2023-09-19T09:14:44;21.00;99.90
2435;DHT22;1228;51.022;6.764;2023-09-19T09:17:11;21.00;99.90
2435;DHT22;1228;51.022;6.764;2023-09-19T09:19:37;21.00;99.90
2435;DHT22;1228;51.022;6.764;2023-09-19T09:22:10;21.30;99.90
2435;DHT22;1228;51.022;6.764;2023-09-19T09:24:37;21.70;99.90
2435;DHT22;1228;51.022;6.764;2023-09-19T09:27:05;21.80;99.90
2435;DHT22;1228;51.022;6.764;2023-09-19T09:32:22;21.60;99.90
2435;DHT22;1228;51.022;6.764;2023-09-19T09:34:51;21.70;99.90
2435;DHT22;1228;51.022;6.764;2023-09-19T09:37:17;22.00;99.90
2435;DHT22;1228;51.022;6.764;2023-09-19T09:39:54;22.00;99.90
2435;DHT22;1228;51.022;6.764;2023-09-19T09:42:33;22.10;99.90
2435;DHT22;1228;51.022;6.764;2023-09-19T09:45:17;22.30;99.90
2435;DHT22;1228;51.022;6.764;2023-09-19T09:47:48;22.10;99.90
2435;DHT22;1228;51.022;6.764;2023-09-19T09:50:36;22.30;99.90
2435;DHT22;1228;51.022;6.764;2023-09-19T09:53:23;22.40;99.90
2435;DHT22;1228;51.022;6.764;2023-09-19T09:56:09;22.20;99.90
2435;DHT22;1228;51.022;6.764;2023-09-19T09:58:49;22.30;99.90
2435;DHT22;1228;51.022;6.764;2023-09-19T10:01:15;22.50;99.90
2435;DHT22;1228;51.022;6.764;2023-09-19T10:03:41;22.30;99.90
2435;DHT22;1228;51.022;6.764;2023-09-19T10:06:15;22.30;99.90
2435;DHT22;1228;51.022;6.764;2023-09-19T10:09:06;22.00;99.90
2435;DHT22;1228;51.022;6.764;2023-09-19T10:11:43;22.00;99.90
2435;DHT22;1228;51.022;6.764;2023-09-19T10:14:11;22.10;99.90
2435;DHT22;1228;51.022;6.764;2023-09-19T10:16:44;22.20;99.90
2435;DHT22;1228;51.022;6.764;2023-09-19T10:22:13;22.10;99.90
2435;DHT22;1228;51.022;6.764;2023-09-19T10:24:47;21.80;99.90
2435;DHT22;1228;51.022;6.764;2023-09-19T10:27:12;21.80;99.90
2435;DHT22;1228;51.022;6.764;2023-09-19T10:29:44;22.00;99.90
2435;DHT22;1228;51.022;6.764;2023-09-19T10:32:14;22.00;99.90
2435;DHT22;1228;51.022;6.764;2023-09-19T10:34:46;22.00;99.90
2435;DHT22;1228;51.022;6.764;2023-09-19T10:37:12;22.00;99.90
2435;DHT22;1228;51.022;6.764;2023-09-19T10:39:40;21.80;99.90
2435;DHT22;1228;51.022;6.764;2023-09-19T10:42:07;21.80;99.90
2435;DHT22;1228;51.022;6.764;2023-09-19T10:44:37;21.80;99.90
2435;DHT22;1228;51.022;6.764;2023-09-19T10:47:09;22.00;99.90
2435;DHT22;1228;51.022;6.764;2023-09-19T10:49:35;21.90;99.90
2435;DHT22;1228;51.022;6.764;2023-09-19T10:52:08;21.70;99.90
2435;DHT22;1228;51.022;6.764;2023-09-19T10:54:38;21.50;99.90
2435;DHT22;1228;51.022;6.764;2023-09-19T10:57:10;21.40;99.90
2435;DHT22;1228;51.022;6.764;2023-09-19T10:59:36;21.30;99.90
2435;DHT22;1228;51.022;6.764;2023-09-19T11:02:17;21.30;99.90
2435;DHT22;1228;51.022;6.764;2023-09-19T11:04:43;21.40;99.90
2435;DHT22;1228;51.022;6.764;2023-09-19T11:07:15;21.40;99.90
2435;DHT22;1228;51.022;6.764;2023-09-19T11:09:54;21.70;99.90
2435;DHT22;1228;51.022;6.764;2023-09-19T11:15:03;21.80;99.90
2435;DHT22;1228;51.022;6.764;2023-09-19T11:17:38;21.80;99.90
2435;DHT22;1228;51.022;6.764;2023-09-19T11:30:37;21.90;99.90
2435;DHT22;1228;51.022;6.764;2023-09-19T11:33:20;21.80;99.90
2435;DHT22;1228;51.022;6.764;2023-09-19T11:43:50;22.50;99.90
2435;DHT22;1228;51.022;6.764;2023-09-19T11:46:20;22.60;99.90
2435;DHT22;1228;51.022;6.764;2023-09-19T11:48:49;22.50;99.90
2435;DHT22;1228;51.022;6.764;2023-09-19T11:51:23;22.70;99.90
2435;DHT22;1228;51.022;6.764;2023-09-19T11:53:52;22.90;99.90
2435;DHT22;1228;51.022;6.764;2023-09-19T11:56:20;23.10;99.90
2435;DHT22;1228;51.022;6.764;2023-09-19T11:58:54;23.30;99.90
2435;DHT22;1228;51.022;6.764;2023-09-19T12:03:53;23.30;99.90
2435;DHT22;1228;51.022;6.764;2023-09-19T12:06:20;23.40;99.90
2435;DHT22;1228;51.022;6.764;2023-09-19T12:08:47;23.30;99.90
2435;DHT22;1228;51.022;6.764;2023-09-19T12:11:15;23.30;99.90
2435;DHT22;1228;51.022;6.764;2023-09-19T12:13:42;23.10;99.90
2435;DHT22;1228;51.022;6.764;2023-09-19T12:16:17;22.90;99.90
2435;DHT22;1228;51.022;6.764;2023-09-19T12:18:45;22.80;99.90
2435;DHT22;1228;51.022;6.764;2023-09-19T12:21:30;22.90;99.90
2435;DHT22;1228;51.022;6.764;2023-09-19T12:26:39;23.10;99.90
2435;DHT22;1228;51.022;6.764;2023-09-19T12:29:16;23.10;99.90
2435;DHT22;1228;51.022;6.764;2023-09-19T12:31:56;23.10;99.90
2435;DHT22;1228;51.022;6.764;2023-09-19T12:34:30;23.10;99.90
2435;DHT22;1228;51.022;6.764;2023-09-19T12:37:14;23.10;99.90
2435;DHT22;1228;51.022;6.764;2023-09-19T12:39:49;23.00;99.90
2435;DHT22;1228;51.022;6.764;2023-09-19T12:42:19;23.10;99.90
2435;DHT22;1228;51.022;6.764;2023-09-19T12:44:49;23.20;99.90
2435;DHT22;1228;51.022;6.764;2023-09-19T12:47:20;23.30;99.90
2435;DHT22;1228;51.022;6.764;2023-09-19T12:50:13;23.20;99.90
2435;DHT22;1228;51.022;6.764;2023-09-19T12:52:48;22.90;99.90
2435;DHT22;1228;51.022;6.764;2023-09-19T12:55:20;22.80;99.90
2435;DHT22;1228;51.022;6.764;2023-09-19T12:58:09;22.90;99.90
2435;DHT22;1228;51.022;6.764;2023-09-19T13:00:42;23.00;99.90
2435;DHT22;1228;51.022;6.764;2023-09-19T13:05:59;23.40;99.90
2435;DHT22;1228;51.022;6.764;2023-09-19T13:08:37;23.30;99.90
2435;DHT22;1228;51.022;6.764;2023-09-19T13:11:14;23.30;99.90
2435;DHT22;1228;51.022;6.764;2023-09-19T13:13:46;23.20;99.90
2435;DHT22;1228;51.022;6.764;2023-09-19T13:16:20;23.10;99.90
2435;DHT22;1228;51.022;6.764;2023-09-19T13:18:48;23.20;99.90
2435;DHT22;1228;51.022;6.764;2023-09-19T13:21:17;23.40;99.90
2435;DHT22;1228;51.022;6.764;2023-09-19T13:23:55;23.40;99.90
2435;DHT22;1228;51.022;6.764;2023-09-19T13:26:25;23.50;99.90
2435;DHT22;1228;51.022;6.764;2023-09-19T13:28:51;23.50;99.90
2435;DHT22;1228;51.022;6.764;2023-09-19T13:31:16;23.60;99.90
2435;DHT22;1228;51.022;6.764;2023-09-19T13:33:44;23.60;99.90
2435;DHT22;1228;51.022;6.764;2023-09-19T13:36:11;23.50;99.90
2435;DHT22;1228;51.022;6.764;2023-09-19T13:38:37;23.50;99.90
2435;DHT22;1228;51.022;6.764;2023-09-19T13:41:03;23.50;99.90
2435;DHT22;1228;51.022;6.764;2023-09-19T13:43:28;23.50;99.90
2435;DHT22;1228;51.022;6.764;2023-09-19T13:45:54;23.40;99.90
2435;DHT22;1228;51.022;6.764;2023-09-19T13:48:20;23.20;99.90
2435;DHT22;1228;51.022;6.764;2023-09-19T13:50:48;23.30;99.90
2435;DHT22;1228;51.022;6.764;2023-09-19T13:53:14;23.20;99.90
2435;DHT22;1228;51.022;6.764;2023-09-19T13:55:40;23.40;99.90
2435;DHT22;1228;51.022;6.764;2023-09-19T13:58:06;23.30;99.90
2435;DHT22;1228;51.022;6.764;2023-09-19T14:00:33;23.20;99.90
2435;DHT22;1228;51.022;6.764;2023-09-19T14:03:01;23.10;99.90
2435;DHT22;1228;51.022;6.764;2023-09-19T14:05:27;22.90;99.90
2435;DHT22;1228;51.022;6.764;2023-09-19T14:07:53;22.80;99.90
2435;DHT22;1228;51.022;6.764;2023-09-19T14:10:22;22.60;99.90
2435;DHT22;1228;51.022;6.764;2023-09-19T14:12:48;22.50;99.90
2435;DHT22;1228;51.022;6.764;2023-09-19T14:15:14;22.40;99.90
2435;DHT22;1228;51.022;6.764;2023-09-19T14:17:40;22.30;99.90
2435;DHT22;1228;51.022;6.764;2023-09-19T14:20:11;22.10;99.90
2435;DHT22;1228;51.022;6.764;2023-09-19T14:22:37;22.10;99.90
2435;DHT22;1228;51.022;6.764;2023-09-19T14:25:04;22.10;99.90
2435;DHT22;1228;51.022;6.764;2023-09-19T14:27:30;22.10;99.90
2435;DHT22;1228;51.022;6.764;2023-09-19T14:29:55;22.50;99.90
2435;DHT22;1228;51.022;6.764;2023-09-19T14:32:23;22.70;99.90
2435;DHT22;1228;51.022;6.764;2023-09-19T14:34:48;23.00;99.90
2435;DHT22;1228;51.022;6.764;2023-09-19T14:37:14;23.30;99.90
2435;DHT22;1228;51.022;6.764;2023-09-19T14:39:41;23.60;99.90
2435;DHT22;1228;51.022;6.764;2023-09-19T14:42:10;23.40;99.90
2435;DHT22;1228;51.022;6.764;2023-09-19T14:44:36;23.50;99.90
2435;DHT22;1228;51.022;6.764;2023-09-19T14:47:03;23.60;99.90
2435;DHT22;1228;51.022;6.764;2023-09-19T14:49:36;23.40;99.90
2435;DHT22;1228;51.022;6.764;2023-09-19T14:52:08;23.30;99.90
2435;DHT22;1228;51.022;6.764;2023-09-19T14:54:34;23.20;99.90
2435;DHT22;1228;51.022;6.764;2023-09-19T14:57:00;22.80;99.90
2435;DHT22;1228;51.022;6.764;2023-09-19T14:59:34;22.50;99.90
2435;DHT22;1228;51.022;6.764;2023-09-19T15:02:06;22.10;99.90
2435;DHT22;1228;51.022;6.764;2023-09-19T15:04:32;21.90;99.90
2435;DHT22;1228;51.022;6.764;2023-09-19T15:06:59;21.70;99.90
2435;DHT22;1228;51.022;6.764;2023-09-19T15:09:25;21.60;99.90
2435;DHT22;1228;51.022;6.764;2023-09-19T15:11:55;21.40;99.90
2435;DHT22;1228;51.022;6.764;2023-09-19T15:14:21;21.30;99.90
2435;DHT22;1228;51.022;6.764;2023-09-19T15:16:47;21.30;99.90
2435;DHT22;1228;51.022;6.764;2023-09-19T15:19:14;21.10;99.90
2435;DHT22;1228;51.022;6.764;2023-09-19T15:21:40;21.10;99.90
2435;DHT22;1228;51.022;6.764;2023-09-19T15:24:06;21.10;99.90
2435;DHT22;1228;51.022;6.764;2023-09-19T15:26:36;21.10;99.90
2435;DHT22;1228;51.022;6.764;2023-09-19T15:29:05;21.20;99.90
2435;DHT22;1228;51.022;6.764;2023-09-19T15:31:31;21.30;99.90
2435;DHT22;1228;51.022;6.764;2023-09-19T15:33:57;21.30;99.90
2435;DHT22;1228;51.022;6.764;2023-09-19T15:36:23;21.40;99.90
2435;DHT22;1228;51.022;6.764;2023-09-19T15:38:58;21.30;99.90
2435;DHT22;1228;51.022;6.764;2023-09-19T15:41:31;21.30;99.90
2435;DHT22;1228;51.022;6.764;2023-09-19T15:43:58;21.30;99.90
2435;DHT22;1228;51.022;6.764;2023-09-19T15:46:30;21.30;99.90
2435;DHT22;1228;51.022;6.764;2023-09-19T15:48:57;21.30;99.90
2435;DHT22;1228;51.022;6.764;2023-09-19T15:51:23;21.40;99.90
2435;DHT22;1228;51.022;6.764;2023-09-19T15:53:51;21.40;99.90
2435;DHT22;1228;51.022;6.764;2023-09-19T15:56:17;21.50;99.90
2435;DHT22;1228;51.022;6.764;2023-09-19T15:58:47;21.50;99.90
2435;DHT22;1228;51.022;6.764;2023-09-19T16:01:13;21.50;99.90
2435;DHT22;1228;51.022;6.764;2023-09-19T16:03:46;21.60;99.90
2435;DHT22;1228;51.022;6.764;2023-09-19T16:06:29;21.60;99.90
2435;DHT22;1228;51.022;6.764;2023-09-19T16:08:57;21.70;99.90
2435;DHT22;1228;51.022;6.764;2023-09-19T16:11:24;21.50;99.90
2435;DHT22;1228;51.022;6.764;2023-09-19T16:13:51;21.40;99.90
2435;DHT22;1228;51.022;6.764;2023-09-19T16:16:20;21.30;99.90
2435;DHT22;1228;51.022;6.764;2023-09-19T16:18:55;21.20;99.90
2435;DHT22;1228;51.022;6.764;2023-09-19T16:21:27;21.00;99.90
2435;DHT22;1228;51.022;6.764;2023-09-19T16:23:54;21.00;99.90
2435;DHT22;1228;51.022;6.764;2023-09-19T16:26:21;20.90;99.90
2435;DHT22;1228;51.022;6.764;2023-09-19T16:28:49;21.10;99.90
2435;DHT22;1228;51.022;6.764;2023-09-19T16:31:15;21.50;99.90
2435;DHT22;1228;51.022;6.764;2023-09-19T16:33:43;21.50;99.90
2435;DHT22;1228;51.022;6.764;2023-09-19T16:36:19;21.60;99.90
2435;DHT22;1228;51.022;6.764;2023-09-19T16:38:47;21.80;99.90
2435;DHT22;1228;51.022;6.764;2023-09-19T16:41:13;21.90;99.90
2435;DHT22;1228;51.022;6.764;2023-09-19T16:43:40;21.60;99.90
2435;DHT22;1228;51.022;6.764;2023-09-19T16:46:08;21.40;99.90
2435;DHT22;1228;51.022;6.764;2023-09-19T16:48:37;21.00;99.90
2435;DHT22;1228;51.022;6.764;2023-09-19T16:51:10;20.70;99.90
2435;DHT22;1228;51.022;6.764;2023-09-19T16:53:37;20.50;99.90
2435;DHT22;1228;51.022;6.764;2023-09-19T16:56:08;20.30;99.90
2435;DHT22;1228;51.022;6.764;2023-09-19T16:58:43;20.20;99.90
2435;DHT22;1228;51.022;6.764;2023-09-19T17:01:11;20.10;99.90